sensor_id;sensor_type;location;lat;lon;timestamp;P1;durP1;ratioP1;P2;durP2;ratioP2
73779;SDS011;62093;37.614;15.072;2023-07-20T00:00:45;8.23;;;4.35;;
73779;SDS011;62093;37.614;15.072;2023-07-20T00:03:12;8.65;;;4.68;;
73779;SDS011;62093;37.614;15.072;2023-07-20T00:05:45;7.78;;;4.30;;
73779;SDS011;62093;37.614;15.072;2023-07-20T00:08:11;7.23;;;4.27;;
73779;SDS011;62093;37.614;15.072;2023-07-20T00:10:37;8.05;;;4.25;;
73779;SDS011;62093;37.614;15.072;2023-07-20T00:13:03;7.38;;;3.58;;
73779;SDS011;62093;37.614;15.072;2023-07-20T00:15:28;8.43;;;4.23;;
73779;SDS011;62093;37.614;15.072;2023-07-20T00:17:55;9.05;;;4.43;;
73779;SDS011;62093;37.614;15.072;2023-07-20T00:20:21;7.50;;;4.25;;
73779;SDS011;62093;37.614;15.072;2023-07-20T00:22:49;9.55;;;4.45;;
73779;SDS011;62093;37.614;15.072;2023-07-20T00:25:16;7.38;;;4.10;;
73779;SDS011;62093;37.614;15.072;2023-07-20T00:27:42;7.13;;;3.80;;
73779;SDS011;62093;37.614;15.072;2023-07-20T00:30:09;8.18;;;4.07;;
73779;SDS011;62093;37.614;15.072;2023-07-20T00:32:35;7.18;;;4.10;;
73779;SDS011;62093;37.614;15.072;2023-07-20T00:35:01;8.23;;;4.28;;
73779;SDS011;62093;37.614;15.072;2023-07-20T00:37:28;6.67;;;4.00;;
73779;SDS011;62093;37.614;15.072;2023-07-20T00:39:54;8.75;;;4.30;;
73779;SDS011;62093;37.614;15.072;2023-07-20T00:42:20;7.57;;;4.80;;
73779;SDS011;62093;37.614;15.072;2023-07-20T00:44:46;8.23;;;4.15;;
73779;SDS011;62093;37.614;15.072;2023-07-20T00:47:12;8.73;;;4.27;;
73779;SDS011;62093;37.614;15.072;2023-07-20T00:49:38;7.88;;;4.43;;
73779;SDS011;62093;37.614;15.072;2023-07-20T00:52:05;7.63;;;4.20;;
73779;SDS011;62093;37.614;15.072;2023-07-20T00:54:33;7.07;;;4.45;;
73779;SDS011;62093;37.614;15.072;2023-07-20T00:57:00;8.00;;;4.63;;
73779;SDS011;62093;37.614;15.072;2023-07-20T00:59:27;7.77;;;4.10;;
73779;SDS011;62093;37.614;15.072;2023-07-20T01:01:53;8.15;;;4.35;;
73779;SDS011;62093;37.614;15.072;2023-07-20T01:04:19;8.68;;;4.55;;
73779;SDS011;62093;37.614;15.072;2023-07-20T01:09:19;7.87;;;4.20;;
73779;SDS011;62093;37.614;15.072;2023-07-20T01:14:24;7.60;;;4.47;;
73779;SDS011;62093;37.614;15.072;2023-07-20T01:16:51;7.60;;;4.35;;
73779;SDS011;62093;37.614;15.072;2023-07-20T01:19:20;7.88;;;4.57;;
73779;SDS011;62093;37.614;15.072;2023-07-20T01:21:57;8.03;;;4.60;;
73779;SDS011;62093;37.614;15.072;2023-07-20T01:33:03;8.27;;;3.97;;
73779;SDS011;62093;37.614;15.072;2023-07-20T01:35:30;8.97;;;4.60;;
73779;SDS011;62093;37.614;15.072;2023-07-20T01:37:58;8.00;;;4.20;;
73779;SDS011;62093;37.614;15.072;2023-07-20T01:40:25;8.32;;;4.30;;
73779;SDS011;62093;37.614;15.072;2023-07-20T01:42:52;7.43;;;4.32;;
73779;SDS011;62093;37.614;15.072;2023-07-20T01:45:19;8.80;;;4.22;;
73779;SDS011;62093;37.614;15.072;2023-07-20T01:47:45;8.30;;;4.20;;
73779;SDS011;62093;37.614;15.072;2023-07-20T01:50:11;7.35;;;4.15;;
73779;SDS011;62093;37.614;15.072;2023-07-20T01:52:37;7.90;;;4.25;;
73779;SDS011;62093;37.614;15.072;2023-07-20T01:55:03;7.45;;;4.10;;
73779;SDS011;62093;37.614;15.072;2023-07-20T01:57:30;7.30;;;4.20;;
73779;SDS011;62093;37.614;15.072;2023-07-20T01:59:57;8.37;;;4.40;;
73779;SDS011;62093;37.614;15.072;2023-07-20T02:02:26;8.68;;;4.15;;
73779;SDS011;62093;37.614;15.072;2023-07-20T02:04:54;7.43;;;4.07;;
73779;SDS011;62093;37.614;15.072;2023-07-20T02:07:20;6.85;;;4.15;;
73779;SDS011;62093;37.614;15.072;2023-07-20T02:09:47;8.35;;;4.30;;
73779;SDS011;62093;37.614;15.072;2023-07-20T02:12:13;7.20;;;4.47;;
73779;SDS011;62093;37.614;15.072;2023-07-20T02:14:39;7.72;;;4.20;;
73779;SDS011;62093;37.614;15.072;2023-07-20T02:17:04;8.20;;;4.40;;
73779;SDS011;62093;37.614;15.072;2023-07-20T02:19:31;8.90;;;4.30;;
73779;SDS011;62093;37.614;15.072;2023-07-20T02:21:57;6.77;;;4.00;;
73779;SDS011;62093;37.614;15.072;2023-07-20T02:24:23;7.72;;;4.60;;
73779;SDS011;62093;37.614;15.072;2023-07-20T02:26:51;7.60;;;4.25;;
73779;SDS011;62093;37.614;15.072;2023-07-20T02:29:17;7.45;;;4.00;;
73779;SDS011;62093;37.614;15.072;2023-07-20T02:31:43;7.67;;;4.17;;
73779;SDS011;62093;37.614;15.072;2023-07-20T02:34:09;6.57;;;4.37;;
73779;SDS011;62093;37.614;15.072;2023-07-20T02:36:35;6.35;;;3.88;;
73779;SDS011;62093;37.614;15.072;2023-07-20T02:39:01;7.32;;;3.90;;
73779;SDS011;62093;37.614;15.072;2023-07-20T02:41:30;7.93;;;3.92;;
73779;SDS011;62093;37.614;15.072;2023-07-20T02:43:58;7.00;;;4.13;;
73779;SDS011;62093;37.614;15.072;2023-07-20T02:46:24;7.50;;;4.25;;
73779;SDS011;62093;37.614;15.072;2023-07-20T02:48:50;8.32;;;4.07;;
73779;SDS011;62093;37.614;15.072;2023-07-20T02:51:16;6.55;;;3.78;;
73779;SDS011;62093;37.614;15.072;2023-07-20T02:53:42;8.55;;;5.00;;
73779;SDS011;62093;37.614;15.072;2023-07-20T02:56:08;7.00;;;3.87;;
73779;SDS011;62093;37.614;15.072;2023-07-20T02:58:34;7.25;;;4.22;;
73779;SDS011;62093;37.614;15.072;2023-07-20T03:01:04;9.18;;;4.40;;
73779;SDS011;62093;37.614;15.072;2023-07-20T03:03:30;7.15;;;4.47;;
73779;SDS011;62093;37.614;15.072;2023-07-20T03:05:56;7.82;;;4.15;;
73779;SDS011;62093;37.614;15.072;2023-07-20T03:08:24;6.37;;;4.40;;
73779;SDS011;62093;37.614;15.072;2023-07-20T03:10:50;7.43;;;4.20;;
73779;SDS011;62093;37.614;15.072;2023-07-20T03:13:16;7.13;;;4.20;;
73779;SDS011;62093;37.614;15.072;2023-07-20T03:15:42;7.32;;;4.25;;
73779;SDS011;62093;37.614;15.072;2023-07-20T03:18:08;7.27;;;4.30;;
73779;SDS011;62093;37.614;15.072;2023-07-20T03:20:35;6.95;;;3.95;;
73779;SDS011;62093;37.614;15.072;2023-07-20T03:23:02;7.68;;;4.20;;
73779;SDS011;62093;37.614;15.072;2023-07-20T03:25:28;7.70;;;4.00;;
73779;SDS011;62093;37.614;15.072;2023-07-20T03:27:54;7.70;;;4.20;;
73779;SDS011;62093;37.614;15.072;2023-07-20T03:30:20;8.33;;;4.47;;
73779;SDS011;62093;37.614;15.072;2023-07-20T03:32:46;7.82;;;4.00;;
73779;SDS011;62093;37.614;15.072;2023-07-20T03:35:12;8.20;;;4.43;;
73779;SDS011;62093;37.614;15.072;2023-07-20T03:37:38;7.88;;;4.40;;
73779;SDS011;62093;37.614;15.072;2023-07-20T03:40:04;8.40;;;4.37;;
73779;SDS011;62093;37.614;15.072;2023-07-20T03:42:33;7.78;;;4.13;;
73779;SDS011;62093;37.614;15.072;2023-07-20T03:44:58;8.02;;;4.32;;
73779;SDS011;62093;37.614;15.072;2023-07-20T03:47:25;7.63;;;4.40;;
73779;SDS011;62093;37.614;15.072;2023-07-20T03:49:51;7.80;;;4.50;;
73779;SDS011;62093;37.614;15.072;2023-07-20T03:52:17;8.07;;;4.57;;
73779;SDS011;62093;37.614;15.072;2023-07-20T03:54:43;8.27;;;4.28;;
73779;SDS011;62093;37.614;15.072;2023-07-20T03:57:09;6.93;;;3.95;;
73779;SDS011;62093;37.614;15.072;2023-07-20T03:59:36;7.88;;;4.38;;
73779;SDS011;62093;37.614;15.072;2023-07-20T04:02:03;8.03;;;4.33;;
73779;SDS011;62093;37.614;15.072;2023-07-20T04:04:31;7.55;;;4.03;;
73779;SDS011;62093;37.614;15.072;2023-07-20T04:06:57;7.55;;;4.28;;
73779;SDS011;62093;37.614;15.072;2023-07-20T04:09:23;8.02;;;4.25;;
73779;SDS011;62093;37.614;15.072;2023-07-20T04:11:49;8.18;;;4.50;;
73779;SDS011;62093;37.614;15.072;2023-07-20T04:14:15;8.30;;;4.63;;
73779;SDS011;62093;37.614;15.072;2023-07-20T04:16:41;8.00;;;4.32;;
73779;SDS011;62093;37.614;15.072;2023-07-20T04:19:07;8.45;;;4.63;;
73779;SDS011;62093;37.614;15.072;2023-07-20T04:21:39;8.15;;;4.40;;
73779;SDS011;62093;37.614;15.072;2023-07-20T04:24:06;8.23;;;4.13;;
73779;SDS011;62093;37.614;15.072;2023-07-20T04:26:33;8.40;;;4.25;;
73779;SDS011;62093;37.614;15.072;2023-07-20T04:28:59;8.35;;;4.45;;
73779;SDS011;62093;37.614;15.072;2023-07-20T04:31:34;7.75;;;4.45;;
73779;SDS011;62093;37.614;15.072;2023-07-20T04:34:02;8.45;;;4.80;;
73779;SDS011;62093;37.614;15.072;2023-07-20T04:36:28;7.53;;;4.23;;
73779;SDS011;62093;37.614;15.072;2023-07-20T04:38:55;7.85;;;4.22;;
73779;SDS011;62093;37.614;15.072;2023-07-20T04:41:22;9.45;;;4.90;;
73779;SDS011;62093;37.614;15.072;2023-07-20T04:43:50;9.00;;;4.95;;
73779;SDS011;62093;37.614;15.072;2023-07-20T04:46:23;8.20;;;4.50;;
73779;SDS011;62093;37.614;15.072;2023-07-20T04:48:50;7.63;;;4.47;;
73779;SDS011;62093;37.614;15.072;2023-07-20T04:51:16;8.32;;;4.32;;
73779;SDS011;62093;37.614;15.072;2023-07-20T04:53:47;8.65;;;4.88;;
73779;SDS011;62093;37.614;15.072;2023-07-20T04:56:13;8.80;;;4.70;;
73779;SDS011;62093;37.614;15.072;2023-07-20T04:58:40;7.80;;;4.70;;
73779;SDS011;62093;37.614;15.072;2023-07-20T05:01:06;7.40;;;4.50;;
73779;SDS011;62093;37.614;15.072;2023-07-20T05:03:34;7.95;;;4.40;;
73779;SDS011;62093;37.614;15.072;2023-07-20T05:06:00;7.03;;;4.00;;
73779;SDS011;62093;37.614;15.072;2023-07-20T05:08:26;8.20;;;4.72;;
73779;SDS011;62093;37.614;15.072;2023-07-20T05:10:53;8.32;;;4.43;;
73779;SDS011;62093;37.614;15.072;2023-07-20T05:13:19;8.17;;;4.73;;
73779;SDS011;62093;37.614;15.072;2023-07-20T05:15:45;7.90;;;4.30;;
73779;SDS011;62093;37.614;15.072;2023-07-20T05:18:14;9.25;;;4.60;;
73779;SDS011;62093;37.614;15.072;2023-07-20T05:20:46;8.13;;;4.85;;
73779;SDS011;62093;37.614;15.072;2023-07-20T05:23:14;8.43;;;4.63;;
73779;SDS011;62093;37.614;15.072;2023-07-20T05:25:40;9.43;;;4.73;;
73779;SDS011;62093;37.614;15.072;2023-07-20T05:28:06;9.57;;;4.47;;
73779;SDS011;62093;37.614;15.072;2023-07-20T05:30:32;7.88;;;4.20;;
73779;SDS011;62093;37.614;15.072;2023-07-20T05:32:58;9.13;;;4.68;;
73779;SDS011;62093;37.614;15.072;2023-07-20T05:35:25;8.60;;;4.77;;
73779;SDS011;62093;37.614;15.072;2023-07-20T05:37:51;8.52;;;4.78;;
73779;SDS011;62093;37.614;15.072;2023-07-20T05:40:17;8.57;;;4.60;;
73779;SDS011;62093;37.614;15.072;2023-07-20T05:42:45;8.55;;;4.78;;
73779;SDS011;62093;37.614;15.072;2023-07-20T05:45:17;8.77;;;4.80;;
73779;SDS011;62093;37.614;15.072;2023-07-20T05:47:43;9.17;;;4.60;;
73779;SDS011;62093;37.614;15.072;2023-07-20T05:50:10;8.50;;;4.93;;
73779;SDS011;62093;37.614;15.072;2023-07-20T05:52:36;8.82;;;4.70;;
73779;SDS011;62093;37.614;15.072;2023-07-20T05:55:04;7.95;;;4.57;;
73779;SDS011;62093;37.614;15.072;2023-07-20T05:57:31;9.95;;;4.47;;
73779;SDS011;62093;37.614;15.072;2023-07-20T05:59:57;10.57;;;4.70;;
73779;SDS011;62093;37.614;15.072;2023-07-20T06:02:22;8.30;;;4.40;;
73779;SDS011;62093;37.614;15.072;2023-07-20T06:04:48;7.78;;;4.30;;
73779;SDS011;62093;37.614;15.072;2023-07-20T06:07:15;10.15;;;4.53;;
73779;SDS011;62093;37.614;15.072;2023-07-20T06:09:41;8.63;;;4.43;;
73779;SDS011;62093;37.614;15.072;2023-07-20T06:12:07;8.90;;;4.47;;
73779;SDS011;62093;37.614;15.072;2023-07-20T06:14:33;8.20;;;4.85;;
73779;SDS011;62093;37.614;15.072;2023-07-20T06:17:00;9.48;;;4.57;;
73779;SDS011;62093;37.614;15.072;2023-07-20T06:19:26;9.27;;;4.50;;
73779;SDS011;62093;37.614;15.072;2023-07-20T06:21:52;10.73;;;4.83;;
73779;SDS011;62093;37.614;15.072;2023-07-20T06:24:18;8.93;;;4.30;;
73779;SDS011;62093;37.614;15.072;2023-07-20T06:26:44;9.40;;;4.47;;
73779;SDS011;62093;37.614;15.072;2023-07-20T06:29:10;10.63;;;4.60;;
73779;SDS011;62093;37.614;15.072;2023-07-20T06:31:36;7.53;;;4.50;;
73779;SDS011;62093;37.614;15.072;2023-07-20T06:34:02;8.88;;;4.35;;
73779;SDS011;62093;37.614;15.072;2023-07-20T06:36:28;8.02;;;4.32;;
73779;SDS011;62093;37.614;15.072;2023-07-20T06:38:57;8.88;;;4.35;;
73779;SDS011;62093;37.614;15.072;2023-07-20T06:41:23;8.63;;;4.50;;
73779;SDS011;62093;37.614;15.072;2023-07-20T06:43:49;7.70;;;4.80;;
73779;SDS011;62093;37.614;15.072;2023-07-20T06:46:15;9.45;;;4.32;;
73779;SDS011;62093;37.614;15.072;2023-07-20T06:48:42;9.45;;;4.72;;
73779;SDS011;62093;37.614;15.072;2023-07-20T06:51:07;8.13;;;4.40;;
73779;SDS011;62093;37.614;15.072;2023-07-20T06:53:34;7.47;;;4.47;;
73779;SDS011;62093;37.614;15.072;2023-07-20T06:56:00;8.38;;;4.22;;
73779;SDS011;62093;37.614;15.072;2023-07-20T06:58:26;9.70;;;4.72;;
73779;SDS011;62093;37.614;15.072;2023-07-20T07:00:52;9.13;;;4.50;;
73779;SDS011;62093;37.614;15.072;2023-07-20T07:03:18;10.75;;;4.53;;
73779;SDS011;62093;37.614;15.072;2023-07-20T07:05:45;7.97;;;4.33;;
73779;SDS011;62093;37.614;15.072;2023-07-20T07:08:11;9.52;;;4.32;;
73779;SDS011;62093;37.614;15.072;2023-07-20T07:10:38;8.98;;;4.70;;
73779;SDS011;62093;37.614;15.072;2023-07-20T07:13:04;8.45;;;4.32;;
73779;SDS011;62093;37.614;15.072;2023-07-20T07:15:30;8.53;;;4.37;;
73779;SDS011;62093;37.614;15.072;2023-07-20T07:17:56;7.87;;;4.20;;
73779;SDS011;62093;37.614;15.072;2023-07-20T07:20:24;9.10;;;4.63;;
73779;SDS011;62093;37.614;15.072;2023-07-20T07:22:50;8.75;;;4.18;;
73779;SDS011;62093;37.614;15.072;2023-07-20T07:25:17;8.90;;;4.45;;
73779;SDS011;62093;37.614;15.072;2023-07-20T07:27:44;8.07;;;4.60;;
73779;SDS011;62093;37.614;15.072;2023-07-20T07:30:10;8.80;;;4.22;;
73779;SDS011;62093;37.614;15.072;2023-07-20T07:32:37;8.80;;;4.15;;
73779;SDS011;62093;37.614;15.072;2023-07-20T07:35:03;8.25;;;4.43;;
73779;SDS011;62093;37.614;15.072;2023-07-20T07:37:30;8.55;;;4.30;;
73779;SDS011;62093;37.614;15.072;2023-07-20T07:39:56;8.37;;;4.40;;
73779;SDS011;62093;37.614;15.072;2023-07-20T07:42:22;7.60;;;4.30;;
73779;SDS011;62093;37.614;15.072;2023-07-20T07:44:49;9.25;;;4.13;;
73779;SDS011;62093;37.614;15.072;2023-07-20T07:47:15;7.57;;;4.10;;
73779;SDS011;62093;37.614;15.072;2023-07-20T07:49:41;8.60;;;4.60;;
73779;SDS011;62093;37.614;15.072;2023-07-20T07:52:07;7.50;;;4.22;;
73779;SDS011;62093;37.614;15.072;2023-07-20T07:54:34;7.50;;;4.40;;
73779;SDS011;62093;37.614;15.072;2023-07-20T07:57:00;9.13;;;4.38;;
73779;SDS011;62093;37.614;15.072;2023-07-20T07:59:27;8.93;;;4.35;;
73779;SDS011;62093;37.614;15.072;2023-07-20T08:01:54;7.93;;;4.17;;
73779;SDS011;62093;37.614;15.072;2023-07-20T08:04:20;9.15;;;4.28;;
73779;SDS011;62093;37.614;15.072;2023-07-20T08:06:46;8.52;;;3.72;;
73779;SDS011;62093;37.614;15.072;2023-07-20T08:09:12;8.57;;;4.15;;
73779;SDS011;62093;37.614;15.072;2023-07-20T08:11:39;9.90;;;4.10;;
73779;SDS011;62093;37.614;15.072;2023-07-20T08:14:05;7.75;;;4.10;;
73779;SDS011;62093;37.614;15.072;2023-07-20T08:16:31;7.85;;;4.00;;
73779;SDS011;62093;37.614;15.072;2023-07-20T08:18:57;8.35;;;4.10;;
73779;SDS011;62093;37.614;15.072;2023-07-20T08:21:23;8.18;;;4.30;;
73779;SDS011;62093;37.614;15.072;2023-07-20T08:23:49;8.87;;;4.10;;
73779;SDS011;62093;37.614;15.072;2023-07-20T08:26:15;8.05;;;4.30;;
73779;SDS011;62093;37.614;15.072;2023-07-20T08:28:42;7.18;;;3.63;;
73779;SDS011;62093;37.614;15.072;2023-07-20T08:31:09;8.80;;;3.97;;
73779;SDS011;62093;37.614;15.072;2023-07-20T08:33:35;9.47;;;4.37;;
73779;SDS011;62093;37.614;15.072;2023-07-20T08:36:01;8.60;;;4.13;;
73779;SDS011;62093;37.614;15.072;2023-07-20T08:38:29;8.48;;;4.20;;
73779;SDS011;62093;37.614;15.072;2023-07-20T08:40:55;9.20;;;4.15;;
73779;SDS011;62093;37.614;15.072;2023-07-20T08:43:22;7.97;;;4.00;;
73779;SDS011;62093;37.614;15.072;2023-07-20T08:45:52;7.55;;;3.72;;
73779;SDS011;62093;37.614;15.072;2023-07-20T08:48:20;7.18;;;3.72;;
73779;SDS011;62093;37.614;15.072;2023-07-20T08:50:47;8.45;;;3.83;;
73779;SDS011;62093;37.614;15.072;2023-07-20T08:53:16;8.98;;;3.97;;
73779;SDS011;62093;37.614;15.072;2023-07-20T08:55:44;9.77;;;4.10;;
73779;SDS011;62093;37.614;15.072;2023-07-20T08:58:12;9.52;;;3.70;;
73779;SDS011;62093;37.614;15.072;2023-07-20T09:00:40;7.93;;;4.13;;
73779;SDS011;62093;37.614;15.072;2023-07-20T09:03:07;9.68;;;4.15;;
73779;SDS011;62093;37.614;15.072;2023-07-20T09:05:33;7.55;;;4.15;;
73779;SDS011;62093;37.614;15.072;2023-07-20T09:08:01;7.47;;;4.00;;
73779;SDS011;62093;37.614;15.072;2023-07-20T09:10:29;8.40;;;3.80;;
73779;SDS011;62093;37.614;15.072;2023-07-20T09:12:55;8.13;;;4.03;;
73779;SDS011;62093;37.614;15.072;2023-07-20T09:15:21;7.72;;;4.00;;
73779;SDS011;62093;37.614;15.072;2023-07-20T09:17:50;8.55;;;4.18;;
73779;SDS011;62093;37.614;15.072;2023-07-20T09:20:19;8.50;;;4.37;;
73779;SDS011;62093;37.614;15.072;2023-07-20T09:22:46;9.40;;;4.13;;
73779;SDS011;62093;37.614;15.072;2023-07-20T09:25:12;7.65;;;4.03;;
73779;SDS011;62093;37.614;15.072;2023-07-20T09:27:43;8.95;;;4.40;;
73779;SDS011;62093;37.614;15.072;2023-07-20T09:30:11;8.55;;;4.13;;
73779;SDS011;62093;37.614;15.072;2023-07-20T09:32:40;9.27;;;4.10;;
73779;SDS011;62093;37.614;15.072;2023-07-20T09:35:15;7.60;;;3.88;;
73779;SDS011;62093;37.614;15.072;2023-07-20T09:40:26;9.23;;;4.03;;
73779;SDS011;62093;37.614;15.072;2023-07-20T09:42:53;9.05;;;4.10;;
73779;SDS011;62093;37.614;15.072;2023-07-20T09:45:29;7.73;;;3.67;;
73779;SDS011;62093;37.614;15.072;2023-07-20T09:48:04;7.82;;;3.70;;
73779;SDS011;62093;37.614;15.072;2023-07-20T09:50:38;7.78;;;3.65;;
73779;SDS011;62093;37.614;15.072;2023-07-20T09:53:11;9.00;;;3.97;;
73779;SDS011;62093;37.614;15.072;2023-07-20T09:55:41;8.60;;;3.90;;
73779;SDS011;62093;37.614;15.072;2023-07-20T09:58:10;8.77;;;4.00;;
73779;SDS011;62093;37.614;15.072;2023-07-20T10:00:37;8.90;;;3.53;;
73779;SDS011;62093;37.614;15.072;2023-07-20T10:03:04;8.00;;;4.10;;
73779;SDS011;62093;37.614;15.072;2023-07-20T10:05:35;7.07;;;3.67;;
73779;SDS011;62093;37.614;15.072;2023-07-20T10:08:04;8.25;;;3.85;;
73779;SDS011;62093;37.614;15.072;2023-07-20T10:10:33;7.57;;;4.17;;
73779;SDS011;62093;37.614;15.072;2023-07-20T10:13:02;7.75;;;3.47;;
73779;SDS011;62093;37.614;15.072;2023-07-20T10:18:03;7.75;;;3.72;;
73779;SDS011;62093;37.614;15.072;2023-07-20T10:20:39;7.88;;;3.58;;
73779;SDS011;62093;37.614;15.072;2023-07-20T10:23:07;6.83;;;3.43;;
73779;SDS011;62093;37.614;15.072;2023-07-20T10:25:33;8.63;;;3.80;;
73779;SDS011;62093;37.614;15.072;2023-07-20T10:28:06;7.10;;;3.55;;
73779;SDS011;62093;37.614;15.072;2023-07-20T10:30:34;8.02;;;3.65;;
73779;SDS011;62093;37.614;15.072;2023-07-20T10:33:04;8.48;;;3.90;;
73779;SDS011;62093;37.614;15.072;2023-07-20T10:35:31;8.83;;;3.67;;
73779;SDS011;62093;37.614;15.072;2023-07-20T10:38:15;8.13;;;3.50;;
73779;SDS011;62093;37.614;15.072;2023-07-20T10:40:41;6.90;;;3.60;;
73779;SDS011;62093;37.614;15.072;2023-07-20T10:43:08;7.50;;;3.85;;
73779;SDS011;62093;37.614;15.072;2023-07-20T10:48:05;8.57;;;4.10;;
73779;SDS011;62093;37.614;15.072;2023-07-20T10:50:32;8.88;;;3.85;;
73779;SDS011;62093;37.614;15.072;2023-07-20T10:53:09;7.78;;;3.60;;
73779;SDS011;62093;37.614;15.072;2023-07-20T10:55:36;8.95;;;3.95;;
73779;SDS011;62093;37.614;15.072;2023-07-20T10:58:09;7.82;;;3.47;;
73779;SDS011;62093;37.614;15.072;2023-07-20T11:00:37;9.03;;;3.30;;
73779;SDS011;62093;37.614;15.072;2023-07-20T11:03:33;8.60;;;3.92;;
73779;SDS011;62093;37.614;15.072;2023-07-20T11:06:29;8.05;;;3.80;;
73779;SDS011;62093;37.614;15.072;2023-07-20T11:08:56;7.75;;;3.72;;
73779;SDS011;62093;37.614;15.072;2023-07-20T11:11:31;7.43;;;3.60;;
73779;SDS011;62093;37.614;15.072;2023-07-20T11:14:00;8.00;;;3.57;;
73779;SDS011;62093;37.614;15.072;2023-07-20T11:16:43;6.75;;;3.65;;
73779;SDS011;62093;37.614;15.072;2023-07-20T11:19:17;7.85;;;3.53;;
73779;SDS011;62093;37.614;15.072;2023-07-20T11:21:46;7.75;;;3.35;;
73779;SDS011;62093;37.614;15.072;2023-07-20T11:24:16;7.50;;;3.60;;
73779;SDS011;62093;37.614;15.072;2023-07-20T11:26:43;6.80;;;3.80;;
73779;SDS011;62093;37.614;15.072;2023-07-20T11:29:10;7.18;;;3.78;;
73779;SDS011;62093;37.614;15.072;2023-07-20T11:31:38;6.85;;;3.65;;
73779;SDS011;62093;37.614;15.072;2023-07-20T11:34:10;6.85;;;3.42;;
73779;SDS011;62093;37.614;15.072;2023-07-20T11:36:39;7.45;;;3.70;;
73779;SDS011;62093;37.614;15.072;2023-07-20T11:39:08;7.23;;;3.47;;
73779;SDS011;62093;37.614;15.072;2023-07-20T11:41:38;7.22;;;3.60;;
73779;SDS011;62093;37.614;15.072;2023-07-20T11:44:09;7.57;;;3.50;;
73779;SDS011;62093;37.614;15.072;2023-07-20T11:46:42;7.03;;;3.80;;
73779;SDS011;62093;37.614;15.072;2023-07-20T11:49:09;7.90;;;3.60;;
73779;SDS011;62093;37.614;15.072;2023-07-20T11:51:36;7.57;;;3.70;;
73779;SDS011;62093;37.614;15.072;2023-07-20T11:54:05;6.75;;;3.55;;
73779;SDS011;62093;37.614;15.072;2023-07-20T11:56:32;6.72;;;3.58;;
73779;SDS011;62093;37.614;15.072;2023-07-20T11:58:58;7.57;;;3.75;;
73779;SDS011;62093;37.614;15.072;2023-07-20T12:01:27;8.18;;;3.58;;
73779;SDS011;62093;37.614;15.072;2023-07-20T12:04:01;7.97;;;4.00;;
73779;SDS011;62093;37.614;15.072;2023-07-20T12:06:29;6.85;;;3.22;;
73779;SDS011;62093;37.614;15.072;2023-07-20T12:08:56;6.28;;;3.10;;
73779;SDS011;62093;37.614;15.072;2023-07-20T12:11:33;6.78;;;3.42;;
73779;SDS011;62093;37.614;15.072;2023-07-20T12:14:08;7.40;;;3.40;;
73779;SDS011;62093;37.614;15.072;2023-07-20T12:16:35;6.97;;;3.87;;
73779;SDS011;62093;37.614;15.072;2023-07-20T12:19:04;8.30;;;3.58;;
73779;SDS011;62093;37.614;15.072;2023-07-20T12:21:31;6.65;;;3.28;;
73779;SDS011;62093;37.614;15.072;2023-07-20T12:23:59;6.78;;;3.47;;
73779;SDS011;62093;37.614;15.072;2023-07-20T12:26:25;6.93;;;3.27;;
73779;SDS011;62093;37.614;15.072;2023-07-20T12:28:52;7.32;;;3.08;;
73779;SDS011;62093;37.614;15.072;2023-07-20T12:31:18;6.55;;;3.40;;
73779;SDS011;62093;37.614;15.072;2023-07-20T12:33:44;6.60;;;3.15;;
73779;SDS011;62093;37.614;15.072;2023-07-20T12:36:10;6.80;;;2.93;;
73779;SDS011;62093;37.614;15.072;2023-07-20T12:38:36;8.63;;;3.30;;
73779;SDS011;62093;37.614;15.072;2023-07-20T12:41:02;8.00;;;3.28;;
73779;SDS011;62093;37.614;15.072;2023-07-20T12:43:28;6.15;;;3.03;;
73779;SDS011;62093;37.614;15.072;2023-07-20T12:45:55;6.40;;;3.10;;
73779;SDS011;62093;37.614;15.072;2023-07-20T12:48:22;6.30;;;3.20;;
73779;SDS011;62093;37.614;15.072;2023-07-20T12:50:48;7.47;;;3.22;;
73779;SDS011;62093;37.614;15.072;2023-07-20T12:53:14;7.13;;;3.45;;
73779;SDS011;62093;37.614;15.072;2023-07-20T12:55:40;7.47;;;2.90;;
73779;SDS011;62093;37.614;15.072;2023-07-20T12:58:06;8.48;;;2.97;;
73779;SDS011;62093;37.614;15.072;2023-07-20T13:00:33;6.07;;;3.03;;
73779;SDS011;62093;37.614;15.072;2023-07-20T13:02:59;7.68;;;3.58;;
73779;SDS011;62093;37.614;15.072;2023-07-20T13:05:30;6.72;;;3.03;;
73779;SDS011;62093;37.614;15.072;2023-07-20T13:08:00;6.45;;;3.10;;
73779;SDS011;62093;37.614;15.072;2023-07-20T13:10:27;6.65;;;3.25;;
73779;SDS011;62093;37.614;15.072;2023-07-20T13:12:54;6.33;;;3.00;;
73779;SDS011;62093;37.614;15.072;2023-07-20T13:15:20;6.88;;;3.40;;
73779;SDS011;62093;37.614;15.072;2023-07-20T13:17:46;7.40;;;4.03;;
73779;SDS011;62093;37.614;15.072;2023-07-20T13:20:12;8.75;;;3.47;;
73779;SDS011;62093;37.614;15.072;2023-07-20T13:22:39;6.45;;;3.13;;
73779;SDS011;62093;37.614;15.072;2023-07-20T13:25:06;8.03;;;3.03;;
73779;SDS011;62093;37.614;15.072;2023-07-20T13:27:33;5.90;;;3.40;;
73779;SDS011;62093;37.614;15.072;2023-07-20T13:29:59;6.38;;;3.20;;
73779;SDS011;62093;37.614;15.072;2023-07-20T13:32:26;6.55;;;3.20;;
73779;SDS011;62093;37.614;15.072;2023-07-20T13:34:53;6.90;;;3.33;;
73779;SDS011;62093;37.614;15.072;2023-07-20T13:37:19;8.37;;;3.20;;
73779;SDS011;62093;37.614;15.072;2023-07-20T13:39:45;6.93;;;3.25;;
73779;SDS011;62093;37.614;15.072;2023-07-20T13:42:11;6.50;;;2.95;;
73779;SDS011;62093;37.614;15.072;2023-07-20T13:44:38;6.13;;;3.28;;
73779;SDS011;62093;37.614;15.072;2023-07-20T13:47:04;6.35;;;2.95;;
73779;SDS011;62093;37.614;15.072;2023-07-20T13:49:33;7.00;;;3.10;;
73779;SDS011;62093;37.614;15.072;2023-07-20T13:51:59;6.47;;;3.22;;
73779;SDS011;62093;37.614;15.072;2023-07-20T13:54:25;6.93;;;3.08;;
73779;SDS011;62093;37.614;15.072;2023-07-20T13:56:51;7.03;;;3.40;;
73779;SDS011;62093;37.614;15.072;2023-07-20T13:59:17;7.00;;;2.97;;
73779;SDS011;62093;37.614;15.072;2023-07-20T14:01:44;6.83;;;3.20;;
73779;SDS011;62093;37.614;15.072;2023-07-20T14:04:10;6.68;;;3.22;;
73779;SDS011;62093;37.614;15.072;2023-07-20T14:06:35;6.22;;;2.67;;
73779;SDS011;62093;37.614;15.072;2023-07-20T14:09:02;8.60;;;3.20;;
73779;SDS011;62093;37.614;15.072;2023-07-20T14:11:28;6.10;;;3.03;;
73779;SDS011;62093;37.614;15.072;2023-07-20T14:13:55;6.25;;;3.03;;
73779;SDS011;62093;37.614;15.072;2023-07-20T14:16:21;6.90;;;3.28;;
73779;SDS011;62093;37.614;15.072;2023-07-20T14:18:48;7.15;;;2.85;;
73779;SDS011;62093;37.614;15.072;2023-07-20T14:21:15;6.45;;;2.80;;
73779;SDS011;62093;37.614;15.072;2023-07-20T14:23:41;6.53;;;3.10;;
73779;SDS011;62093;37.614;15.072;2023-07-20T14:26:07;6.20;;;3.10;;
73779;SDS011;62093;37.614;15.072;2023-07-20T14:28:34;6.88;;;2.67;;
73779;SDS011;62093;37.614;15.072;2023-07-20T14:31:01;6.03;;;2.70;;
73779;SDS011;62093;37.614;15.072;2023-07-20T14:33:27;5.88;;;3.08;;
73779;SDS011;62093;37.614;15.072;2023-07-20T14:35:53;6.80;;;2.90;;
73779;SDS011;62093;37.614;15.072;2023-07-20T14:38:18;6.22;;;2.88;;
73779;SDS011;62093;37.614;15.072;2023-07-20T14:40:45;6.32;;;3.08;;
73779;SDS011;62093;37.614;15.072;2023-07-20T14:43:11;6.72;;;2.80;;
73779;SDS011;62093;37.614;15.072;2023-07-20T14:45:37;6.03;;;2.95;;
73779;SDS011;62093;37.614;15.072;2023-07-20T14:48:03;7.00;;;3.10;;
73779;SDS011;62093;37.614;15.072;2023-07-20T14:50:29;5.72;;;2.72;;
73779;SDS011;62093;37.614;15.072;2023-07-20T14:52:55;6.72;;;3.03;;
73779;SDS011;62093;37.614;15.072;2023-07-20T14:55:21;6.53;;;2.90;;